createdAt,value
2018-01-06T08:43:00.436Z,10.47
2018-01-06T08:45:28.018Z,10.80
2018-01-06T08:47:55.615Z,11.17
2018-01-06T08:50:23.170Z,11.35
2018-01-06T08:52:50.805Z,11.57
2018-01-06T08:55:18.434Z,11.71
2018-01-06T08:57:45.989Z,11.97
2018-01-06T09:00:14.438Z,12.23
2018-01-06T09:02:41.984Z,12.37
2018-01-06T09:05:09.523Z,12.53
2018-01-06T09:07:37.154Z,12.63
2018-01-06T09:10:04.724Z,12.80
2018-01-06T09:12:32.338Z,12.87
2018-01-06T09:14:59.938Z,13.09
2018-01-06T09:17:27.562Z,13.19
2018-01-06T09:19:55.196Z,13.36
2018-01-06T09:22:22.759Z,13.63
2018-01-06T09:24:50.433Z,13.78
2018-01-06T09:27:18.063Z,14.06
2018-01-06T09:29:45.622Z,14.34
2018-01-06T09:32:13.259Z,14.71
2018-01-06T09:34:40.821Z,15.06
2018-01-06T09:37:08.522Z,15.15
2018-01-06T09:39:36.115Z,15.74
2018-01-06T09:42:03.678Z,16.29
2018-01-06T09:44:31.251Z,16.75
2018-01-06T09:46:58.872Z,17.03
2018-01-06T09:49:26.486Z,17.25
2018-01-06T09:51:54.112Z,17.81
2018-01-06T09:54:21.734Z,18.00
2018-01-06T09:56:49.310Z,18.02
2018-01-06T09:59:16.879Z,18.62
2018-01-06T10:01:44.556Z,19.16
2018-01-06T10:04:12.121Z,19.46
2018-01-06T10:06:39.736Z,19.24
2018-01-06T10:09:07.316Z,19.40
2018-01-06T10:11:34.882Z,20.08
2018-01-06T10:14:02.609Z,20.33
2018-01-06T10:16:30.205Z,20.41
2018-01-06T10:18:57.773Z,19.65
2018-01-06T10:21:25.347Z,19.15
2018-01-06T10:23:52.976Z,18.90
2018-01-06T10:26:20.593Z,19.06
2018-01-06T10:28:48.221Z,18.98
2018-01-06T10:31:15.840Z,19.03
2018-01-06T10:33:43.419Z,19.05
2018-01-06T10:36:10.995Z,18.61
2018-01-06T10:38:38.676Z,18.64
2018-01-06T10:41:06.244Z,19.04
2018-01-06T10:43:33.848Z,18.60
2018-01-06T10:46:01.416Z,18.88
2018-01-06T10:48:28.982Z,18.87
2018-01-06T10:50:56.626Z,19.15
2018-01-06T10:53:24.242Z,19.09
2018-01-06T10:55:51.805Z,19.48
2018-01-06T10:58:19.431Z,19.22
2018-01-06T11:00:52.686Z,20.25
2018-01-06T11:03:20.307Z,20.72
2018-01-06T11:05:47.874Z,20.43
2018-01-06T11:08:15.448Z,20.76
2018-01-06T11:10:43.023Z,21.23
2018-01-06T11:13:10.582Z,21.13
2018-01-06T11:15:38.297Z,21.40
2018-01-06T11:18:05.872Z,21.67
2018-01-06T11:20:33.431Z,22.18
2018-01-06T11:23:01.010Z,22.44
2018-01-06T11:25:28.575Z,22.23
2018-01-06T11:27:56.280Z,22.32
2018-01-06T11:30:23.908Z,22.74
2018-01-06T11:32:51.470Z,22.80
2018-01-06T11:35:19.023Z,23.26
2018-01-06T11:37:46.644Z,22.63
2018-01-06T11:40:14.286Z,22.36
2018-01-06T11:42:41.859Z,22.68
2018-01-06T11:45:09.495Z,21.96
2018-01-06T11:47:37.131Z,21.05
2018-01-06T11:50:04.854Z,20.21
2018-01-06T11:52:32.560Z,19.50
2018-01-06T11:55:00.182Z,19.11
2018-01-06T11:57:27.760Z,18.69
2018-01-06T11:59:55.340Z,18.17
2018-01-06T12:02:22.967Z,17.63
2018-01-06T12:04:50.586Z,17.28
2018-01-06T12:07:18.149Z,17.12
2018-01-06T12:09:45.710Z,16.95
2018-01-06T12:12:13.347Z,16.76
2018-01-06T12:14:40.924Z,16.62
2018-01-06T12:17:08.560Z,16.52
2018-01-06T12:19:36.184Z,16.36
2018-01-06T12:22:03.751Z,16.23
2018-01-06T12:24:31.328Z,16.27
2018-01-06T12:26:58.879Z,16.23
2018-01-06T12:29:26.595Z,16.16
2018-01-06T12:31:54.162Z,16.14
2018-01-06T12:34:21.726Z,16.12
2018-01-06T12:36:49.358Z,16.04
2018-01-06T12:39:16.938Z,16.03
2018-01-06T12:41:44.559Z,16.02
2018-01-06T12:44:12.135Z,15.94
2018-01-06T12:46:39.759Z,15.99
2018-01-06T12:49:07.339Z,15.97
2018-01-06T12:51:34.948Z,15.94
2018-01-06T12:54:02.571Z,15.92
2018-01-06T12:56:30.186Z,15.94
2018-01-06T12:58:57.757Z,15.85
2018-01-06T13:01:25.396Z,15.80
2018-01-06T13:03:53.022Z,15.82
2018-01-06T13:06:20.668Z,15.76
2018-01-06T13:08:48.332Z,15.74
2018-01-06T13:11:15.909Z,15.67
2018-01-06T13:13:43.482Z,15.69
2018-01-06T13:16:11.052Z,15.66
2018-01-06T13:18:38.676Z,15.64
2018-01-06T13:21:06.286Z,15.63
2018-01-06T13:23:33.914Z,15.54
2018-01-06T13:26:01.540Z,15.50
2018-01-06T13:28:29.103Z,15.52
2018-01-06T13:30:56.729Z,15.44
2018-01-06T13:33:24.362Z,15.44
2018-01-06T13:35:51.946Z,15.36
2018-01-06T13:38:19.513Z,15.31
2018-01-06T13:40:47.124Z,15.26
2018-01-06T13:43:14.781Z,15.22
2018-01-06T13:45:42.331Z,15.19
2018-01-06T13:48:09.898Z,15.15
2018-01-06T13:50:37.476Z,15.09
2018-01-06T13:53:05.052Z,15.03
2018-01-06T13:55:32.706Z,14.97
2018-01-06T13:58:00.282Z,14.99
2018-01-06T14:00:27.918Z,14.90
2018-01-06T14:02:55.539Z,14.70
2018-01-06T14:05:23.144Z,14.58
2018-01-06T14:07:50.762Z,14.47
2018-01-06T14:10:18.332Z,14.33
2018-01-06T14:12:46.012Z,14.27
2018-01-06T14:15:13.599Z,14.18
2018-01-06T14:17:41.275Z,14.04
2018-01-06T14:20:08.930Z,13.91
2018-01-06T14:22:36.503Z,13.86
2018-01-06T14:25:04.080Z,13.70
2018-01-06T14:27:31.664Z,13.66
2018-01-06T14:29:59.243Z,13.53
2018-01-06T14:32:26.894Z,13.43
2018-01-06T14:34:54.466Z,13.31
2018-01-06T14:37:22.035Z,13.20
2018-01-06T14:39:49.678Z,13.03
2018-01-06T14:42:17.248Z,12.85
2018-01-06T14:44:44.983Z,12.70
2018-01-06T14:47:12.666Z,12.55
2018-01-06T14:49:40.234Z,12.41
2018-01-06T14:52:07.861Z,12.27
2018-01-06T14:54:35.432Z,12.13
2018-01-06T14:57:03.152Z,11.98
2018-01-06T14:59:30.787Z,11.79
2018-01-06T15:01:58.361Z,11.73
2018-01-06T15:04:25.969Z,11.56
2018-01-06T15:06:53.553Z,11.45
2018-01-06T15:09:21.260Z,11.31
2018-01-06T15:11:48.891Z,11.21
2018-01-06T15:14:16.537Z,11.12
2018-01-06T15:16:44.123Z,11.05
2018-01-06T15:19:11.708Z,10.97
2018-01-06T15:21:39.391Z,10.85
2018-01-06T15:24:07.052Z,10.70
2018-01-06T15:26:34.630Z,10.77
2018-01-06T15:29:02.856Z,10.73
2018-01-06T15:31:30.433Z,10.67
2018-01-06T15:33:58.049Z,10.58
2018-01-06T15:36:25.622Z,10.56
2018-01-06T15:38:53.246Z,10.54
2018-01-06T15:41:20.819Z,10.66
2018-01-06T15:43:48.385Z,10.81
2018-01-06T15:46:16.006Z,10.92
2018-01-06T15:48:43.575Z,11.24
2018-01-06T15:51:11.192Z,11.44
2018-01-06T15:53:38.835Z,11.53
2018-01-06T15:56:06.466Z,11.68
2018-01-06T15:58:34.086Z,11.77
2018-01-06T16:01:01.658Z,11.93
2018-01-06T16:03:29.227Z,11.81
2018-01-06T16:05:56.806Z,11.64
2018-01-06T16:08:24.378Z,11.63
2018-01-06T16:10:52.002Z,11.51
2018-01-06T16:13:19.578Z,11.51
2018-01-06T16:15:47.151Z,11.49
2018-01-06T16:18:14.725Z,11.39
2018-01-06T16:20:42.314Z,11.26
2018-01-06T16:23:09.939Z,11.21
2018-01-06T16:25:37.511Z,11.24
2018-01-06T16:28:05.140Z,11.36
2018-01-06T16:30:32.775Z,11.28
2018-01-06T16:33:00.355Z,11.16
2018-01-06T16:35:27.982Z,11.03
2018-01-06T16:37:55.562Z,10.91
2018-01-06T16:40:23.199Z,10.81
2018-01-06T16:42:50.782Z,10.74
2018-01-06T16:45:18.419Z,10.72
2018-01-06T16:47:46.041Z,10.58
2018-01-06T16:50:13.610Z,10.56
2018-01-06T16:52:41.198Z,10.57
2018-01-06T16:55:08.783Z,10.65
2018-01-06T16:57:36.361Z,10.79
2018-01-06T17:00:03.992Z,10.87
2018-01-06T17:02:31.538Z,11.18
2018-01-06T17:04:59.114Z,11.42
2018-01-06T17:07:26.701Z,11.56
2018-01-06T17:09:54.343Z,11.55
2018-01-06T17:12:21.985Z,11.73
2018-01-06T17:14:49.614Z,11.77
2018-01-06T17:17:17.234Z,11.79
2018-01-06T17:19:44.887Z,11.95
2018-01-06T17:22:12.474Z,12.15
2018-01-06T17:24:40.100Z,12.29
2018-01-06T17:27:07.740Z,12.32
2018-01-06T17:29:35.298Z,12.33
2018-01-06T17:32:02.871Z,12.34
2018-01-06T17:34:30.516Z,12.39
2018-01-06T17:36:58.166Z,12.51
2018-01-06T17:39:25.800Z,12.42
2018-01-06T17:41:53.427Z,12.37
2018-01-06T17:44:21.012Z,12.29
2018-01-06T17:46:48.576Z,12.26
2018-01-06T17:49:16.197Z,12.35
2018-01-06T17:51:43.761Z,12.48
2018-01-06T17:54:11.392Z,12.51
2018-01-06T17:56:39.007Z,12.39
2018-01-06T17:59:06.551Z,12.31
2018-01-06T18:01:34.167Z,12.11
2018-01-06T18:04:01.801Z,12.08
2018-01-06T18:06:29.371Z,11.92
2018-01-06T18:08:56.952Z,11.87
2018-01-06T18:11:24.540Z,11.82
2018-01-06T18:13:52.219Z,11.81
2018-01-06T18:16:19.787Z,11.86
2018-01-06T18:18:47.411Z,11.99
2018-01-06T18:21:15.043Z,12.02
2018-01-06T18:23:42.584Z,11.83
2018-01-06T18:26:10.208Z,11.74
2018-01-06T18:28:37.770Z,11.89
2018-01-06T18:31:05.341Z,11.82
2018-01-06T18:33:32.897Z,11.82
2018-01-06T18:36:00.458Z,11.95
2018-01-06T18:38:28.110Z,11.99
2018-01-06T18:40:55.743Z,11.98
2018-01-06T18:43:23.302Z,11.95
2018-01-06T18:45:50.911Z,11.77
2018-01-06T18:48:18.542Z,11.62
2018-01-06T18:50:46.170Z,11.58
2018-01-06T18:53:13.739Z,11.42
2018-01-06T18:55:41.302Z,11.29
2018-01-06T18:58:08.854Z,11.13
2018-01-06T19:00:36.399Z,11.20
2018-01-06T19:03:04.028Z,11.26
2018-01-06T19:05:31.659Z,11.05
2018-01-06T19:07:59.235Z,10.81
2018-01-06T19:10:26.829Z,10.67
2018-01-06T19:12:54.398Z,10.49
2018-01-06T19:15:22.014Z,10.35
2018-01-06T19:17:49.588Z,10.17
2018-01-06T19:20:17.159Z,9.99
2018-01-06T19:22:44.735Z,9.89
2018-01-06T19:25:12.299Z,9.77
2018-01-06T19:27:39.945Z,9.60
2018-01-06T19:30:07.518Z,9.46
2018-01-06T19:32:35.078Z,9.31
2018-01-06T19:35:02.686Z,9.09
2018-01-06T19:37:30.255Z,9.01
2018-01-06T19:39:57.912Z,8.86
2018-01-06T19:42:25.482Z,8.72
2018-01-06T19:44:53.060Z,8.58
2018-01-06T19:47:20.635Z,8.48
2018-01-06T19:49:48.205Z,8.42
2018-01-06T19:52:15.896Z,8.28
2018-01-06T19:54:43.467Z,8.28
2018-01-06T19:57:11.018Z,8.26
2018-01-06T19:59:38.654Z,8.26
2018-01-06T20:02:06.222Z,8.16
2018-01-06T20:04:33.848Z,8.05
2018-01-06T20:07:01.422Z,7.93
2018-01-06T20:09:29.052Z,7.84
2018-01-06T20:11:56.634Z,7.80
2018-01-06T20:14:24.219Z,7.76
2018-01-06T20:16:51.842Z,7.62
2018-01-06T20:19:19.433Z,7.52
2018-01-06T20:21:47.006Z,7.37
2018-01-06T20:24:14.578Z,7.27
2018-01-06T20:26:42.138Z,7.13
2018-01-06T20:29:09.814Z,7.06
2018-01-06T20:31:37.440Z,6.93
2018-01-06T20:34:05.078Z,6.97
2018-01-06T20:36:32.715Z,6.89
2018-01-06T20:39:00.344Z,6.88
2018-01-06T20:41:27.948Z,6.74
2018-01-06T20:43:55.510Z,6.71
2018-01-06T20:46:23.095Z,6.80
2018-01-06T20:48:50.667Z,6.80
2018-01-06T20:51:18.244Z,6.70
2018-01-06T20:53:45.917Z,6.61
2018-01-06T20:56:13.455Z,6.59
2018-01-06T20:58:41.026Z,6.53
2018-01-06T21:01:08.601Z,6.48
2018-01-06T21:03:36.223Z,6.41
2018-01-06T21:06:03.834Z,6.36
2018-01-06T21:08:31.468Z,6.31
2018-01-06T21:10:59.039Z,6.28
2018-01-06T21:13:26.619Z,6.22
2018-01-06T21:15:54.194Z,6.18
2018-01-06T21:18:21.825Z,6.15
2018-01-06T21:20:49.428Z,6.12
2018-01-06T21:23:17.076Z,6.14
2018-01-06T21:25:44.658Z,6.12
2018-01-06T21:28:12.236Z,6.09
2018-01-06T21:30:39.951Z,6.01
2018-01-06T21:33:07.530Z,6.03
2018-01-06T21:35:35.158Z,6.02
2018-01-06T21:38:02.796Z,5.94
2018-01-06T21:40:30.363Z,5.89
2018-01-06T21:42:57.991Z,5.93
2018-01-06T21:45:25.655Z,5.84
2018-01-06T21:47:53.296Z,5.79
2018-01-06T21:50:20.874Z,5.76
2018-01-06T21:52:48.442Z,5.74
2018-01-06T21:55:16.071Z,5.69
2018-01-06T21:57:43.659Z,5.72
2018-01-06T22:00:11.311Z,5.66
2018-01-06T22:02:38.897Z,5.68
2018-01-06T22:05:06.471Z,5.59
2018-01-06T22:07:34.174Z,5.56
2018-01-06T22:10:01.738Z,5.53
2018-01-06T22:12:29.377Z,5.52
2018-01-06T22:14:57.019Z,5.49
2018-01-06T22:17:24.588Z,5.52
2018-01-06T22:19:52.219Z,5.54
2018-01-06T22:22:19.849Z,5.48
2018-01-06T22:24:47.419Z,5.44
2018-01-06T22:27:15.051Z,5.43
2018-01-06T22:29:42.622Z,5.41
2018-01-06T22:32:10.364Z,5.42
2018-01-06T22:34:37.934Z,5.41
2018-01-06T22:37:05.554Z,5.36
2018-01-06T22:39:33.186Z,5.39
2018-01-06T22:42:00.811Z,5.37
2018-01-06T22:44:28.415Z,5.35
2018-01-06T22:46:55.979Z,5.36
2018-01-06T22:49:23.544Z,5.33
2018-01-06T22:51:51.113Z,5.29
2018-01-06T22:54:18.679Z,5.25
2018-01-06T22:56:46.365Z,5.17
2018-01-06T22:59:13.957Z,5.16
2018-01-06T23:01:41.532Z,5.10
2018-01-06T23:04:09.107Z,5.10
2018-01-06T23:06:36.671Z,5.05
2018-01-06T23:09:04.382Z,4.95
2018-01-06T23:11:31.992Z,4.88
2018-01-06T23:13:59.552Z,4.89
2018-01-06T23:16:27.117Z,4.81
2018-01-06T23:18:54.679Z,4.82
2018-01-06T23:21:22.294Z,4.77
2018-01-06T23:23:49.864Z,4.74
2018-01-06T23:26:17.407Z,4.60
2018-01-06T23:28:45.038Z,4.59
2018-01-06T23:31:12.665Z,4.53
2018-01-06T23:33:40.283Z,4.51
2018-01-06T23:36:07.827Z,4.50
2018-01-06T23:38:35.402Z,4.44
2018-01-06T23:41:03.038Z,4.38
2018-01-06T23:43:30.714Z,4.32
2018-01-06T23:45:58.418Z,4.26
2018-01-06T23:48:26.040Z,4.25
2018-01-06T23:50:53.661Z,4.23
2018-01-06T23:53:21.242Z,4.19
2018-01-06T23:55:48.807Z,4.28
2018-01-06T23:58:16.436Z,4.27
